Time;durP1;ratioP1;P1;durP2;ratioP2;P2;SDS_P1;SDS_P2;PMS_P1;PMS_P2;Temp;Humidity;BMP_temperature;BMP_pressure;BME280_temperature;BME280_humidity;BME280_pressure;Samples;Min_cycle;Max_cycle;Signal;HPM_P1;HPM_P2
2023/12/29 00:02:21;;;;;;;38.40;6.93;;;;;;;;;;5045914;28;20048;-82
2023/12/29 00:04:47;;;;;;;33.10;8.45;;;;;;;;;;5046685;28;20052;-83
2023/12/29 00:07:13;;;;;;;34.72;7.25;;;;;;;;;;5051628;28;20080;-83
2023/12/29 00:09:40;;;;;;;40.28;8.00;;;;;;;;;;5054262;28;20072;-81
2023/12/29 00:12:07;;;;;;;43.17;8.98;;;;;;;;;;5054905;28;20445;-82
2023/12/29 00:14:33;;;;;;;27.55;6.55;;;;;;;;;;5043585;28;20044;-82
2023/12/29 00:17:00;;;;;;;44.53;9.02;;;;;;;;;;5045615;28;20111;-82
2023/12/29 00:19:26;;;;;;;36.10;6.97;;;;;;;;;;5050808;28;20044;-82
2023/12/29 00:21:52;;;;;;;37.53;6.88;;;;;;;;;;5058206;28;20676;-82
2023/12/29 00:24:21;;;;;;;34.30;6.28;;;;;;;;;;5039449;28;20059;-82
2023/12/29 00:26:47;;;;;;;29.42;6.72;;;;;;;;;;5066594;28;20079;-82
2023/12/29 00:29:15;;;;;;;36.58;7.40;;;;;;;;;;5041927;28;20119;-82
2023/12/29 00:31:41;;;;;;;37.20;7.45;;;;;;;;;;5045280;28;20049;-82
2023/12/29 00:34:07;;;;;;;36.30;7.57;;;;;;;;;;5052201;28;20040;-83
2023/12/29 00:36:33;;;;;;;28.75;8.07;;;;;;;;;;5069028;28;20045;-82
2023/12/29 00:38:59;;;;;;;39.70;7.15;;;;;;;;;;5042591;28;20102;-83
2023/12/29 00:41:25;;;;;;;21.35;5.50;;;;;;;;;;5047441;28;20037;-83
2023/12/29 00:43:51;;;;;;;27.92;6.78;;;;;;;;;;5056180;28;20045;-83
2023/12/29 00:46:17;;;;;;;28.55;5.70;;;;;;;;;;5054762;28;20040;-83
2023/12/29 00:48:43;;;;;;;29.38;6.60;;;;;;;;;;5044421;28;20679;-82
2023/12/29 00:51:09;;;;;;;32.97;7.20;;;;;;;;;;5055377;28;20537;-81
2023/12/29 00:53:35;;;;;;;24.48;5.63;;;;;;;;;;5050741;28;20036;-83
2023/12/29 00:56:01;;;;;;;30.63;6.60;;;;;;;;;;5054422;28;20106;-82
2023/12/29 00:58:27;;;;;;;31.10;5.15;;;;;;;;;;5049314;28;20385;-82
2023/12/29 01:00:54;;;;;;;28.40;6.05;;;;;;;;;;5047234;28;20121;-83
2023/12/29 01:03:20;;;;;;;32.55;6.10;;;;;;;;;;5065364;28;20373;-83
2023/12/29 01:05:46;;;;;;;33.92;6.82;;;;;;;;;;5053424;28;20047;-82
2023/12/29 01:08:12;;;;;;;30.15;6.15;;;;;;;;;;5054007;28;20044;-82
2023/12/29 01:10:38;;;;;;;27.65;6.78;;;;;;;;;;5070297;28;20044;-82
2023/12/29 01:13:04;;;;;;;34.15;7.07;;;;;;;;;;5055481;28;20110;-82
2023/12/29 01:15:30;;;;;;;26.00;6.75;;;;;;;;;;5055085;28;20117;-83
2023/12/29 01:17:56;;;;;;;27.75;6.22;;;;;;;;;;5047054;28;20489;-83
2023/12/29 01:20:22;;;;;;;36.65;7.13;;;;;;;;;;5044162;28;20049;-82
2023/12/29 01:22:48;;;;;;;28.92;6.82;;;;;;;;;;5065709;28;20075;-83
2023/12/29 01:25:14;;;;;;;32.55;6.07;;;;;;;;;;5059453;28;20546;-82
2023/12/29 01:27:40;;;;;;;31.10;7.32;;;;;;;;;;5042512;28;20052;-82
2023/12/29 01:30:07;;;;;;;24.77;5.35;;;;;;;;;;5044968;28;20049;-82
2023/12/29 01:32:33;;;;;;;29.65;6.10;;;;;;;;;;5048965;28;20091;-82
2023/12/29 01:34:59;;;;;;;29.15;6.30;;;;;;;;;;5036134;28;20045;-82
2023/12/29 01:37:25;;;;;;;30.85;7.45;;;;;;;;;;5045011;28;20056;-82
2023/12/29 01:39:51;;;;;;;26.83;6.07;;;;;;;;;;5045156;28;20131;-81
2023/12/29 01:42:17;;;;;;;24.00;5.10;;;;;;;;;;5042270;28;20503;-82
2023/12/29 01:44:44;;;;;;;28.17;7.65;;;;;;;;;;5048875;28;20055;-82
2023/12/29 01:47:18;;;;;;;27.13;6.85;;;;;;;;;;5050892;28;20128;-82
2023/12/29 01:49:47;;;;;;;25.25;5.63;;;;;;;;;;5046636;28;20070;-83
2023/12/29 01:52:14;;;;;;;27.10;6.55;;;;;;;;;;5033905;28;20072;-82
2023/12/29 01:54:42;;;;;;;30.63;6.78;;;;;;;;;;5050249;28;20098;-82
2023/12/29 01:57:08;;;;;;;21.80;4.45;;;;;;;;;;5037228;28;20102;-83
2023/12/29 01:59:35;;;;;;;18.25;5.72;;;;;;;;;;5037701;28;20068;-82
2023/12/29 02:02:01;;;;;;;26.42;6.15;;;;;;;;;;5046150;28;20076;-82
2023/12/29 02:04:28;;;;;;;27.30;5.97;;;;;;;;;;5048364;28;20572;-83
2023/12/29 02:06:54;;;;;;;28.30;6.72;;;;;;;;;;5041620;28;20102;-83
2023/12/29 02:09:21;;;;;;;38.00;6.70;;;;;;;;;;5045543;28;20044;-82
2023/12/29 02:11:47;;;;;;;30.13;7.53;;;;;;;;;;5049947;28;20040;-82
2023/12/29 02:14:14;;;;;;;32.47;6.95;;;;;;;;;;5042966;28;20400;-82
2023/12/29 02:16:49;;;;;;;33.50;7.15;;;;;;;;;;5042274;28;20049;-83
2023/12/29 02:19:35;;;;;;;26.67;6.28;;;;;;;;;;5051495;28;20045;-82
2023/12/29 02:22:01;;;;;;;33.10;6.82;;;;;;;;;;5040203;28;20048;-82
2023/12/29 02:24:27;;;;;;;35.65;7.10;;;;;;;;;;5041316;28;20063;-82
2023/12/29 02:26:58;;;;;;;37.55;7.40;;;;;;;;;;5057160;28;20778;-81
2023/12/29 02:29:26;;;;;;;24.33;7.53;;;;;;;;;;5051859;28;20060;-82
2023/12/29 02:31:53;;;;;;;32.03;6.85;;;;;;;;;;5063737;28;20044;-82
2023/12/29 02:34:20;;;;;;;32.40;7.85;;;;;;;;;;5052366;28;20044;-82
2023/12/29 02:36:46;;;;;;;27.00;7.13;;;;;;;;;;5050521;28;20481;-82
2023/12/29 02:39:12;;;;;;;25.80;6.60;;;;;;;;;;5053877;28;20063;-82
2023/12/29 02:41:39;;;;;;;30.30;7.72;;;;;;;;;;5039459;28;20540;-81
2023/12/29 02:44:05;;;;;;;31.02;7.13;;;;;;;;;;5052570;28;20052;-82
2023/12/29 02:46:31;;;;;;;26.20;6.97;;;;;;;;;;5048740;28;20122;-82
2023/12/29 02:48:59;;;;;;;19.92;5.20;;;;;;;;;;5053751;28;20153;-82
2023/12/29 02:51:25;;;;;;;25.95;7.05;;;;;;;;;;5038224;28;20052;-81
2023/12/29 02:53:51;;;;;;;24.17;5.85;;;;;;;;;;5051096;28;20397;-82
2023/12/29 02:56:17;;;;;;;29.13;6.97;;;;;;;;;;5069124;28;20044;-82
2023/12/29 02:58:45;;;;;;;27.52;5.65;;;;;;;;;;5052169;28;20052;-81
2023/12/29 03:01:11;;;;;;;23.27;6.25;;;;;;;;;;5049537;28;20109;-82
2023/12/29 03:03:39;;;;;;;21.40;5.45;;;;;;;;;;5061210;28;20129;-82
2023/12/29 03:06:06;;;;;;;21.50;4.93;;;;;;;;;;5052104;28;20105;-82
2023/12/29 03:08:32;;;;;;;22.63;5.47;;;;;;;;;;5045630;28;20094;-82
2023/12/29 03:10:58;;;;;;;22.85;5.72;;;;;;;;;;5062155;28;20053;-83
2023/12/29 03:13:24;;;;;;;22.63;5.82;;;;;;;;;;5059669;28;20048;-82
2023/12/29 03:15:50;;;;;;;30.58;6.40;;;;;;;;;;5050167;28;20481;-82
2023/12/29 03:18:16;;;;;;;19.52;6.13;;;;;;;;;;5052921;28;20134;-82
2023/12/29 03:20:43;;;;;;;28.65;5.68;;;;;;;;;;5057192;28;20060;-82
2023/12/29 03:23:09;;;;;;;19.83;5.28;;;;;;;;;;5048129;28;20556;-82
2023/12/29 03:25:35;;;;;;;25.83;5.45;;;;;;;;;;5055173;28;20128;-81
2023/12/29 03:28:01;;;;;;;23.95;5.93;;;;;;;;;;5064707;28;20131;-83
2023/12/29 03:30:27;;;;;;;20.02;5.70;;;;;;;;;;5047918;28;20128;-82
2023/12/29 03:32:53;;;;;;;31.83;6.78;;;;;;;;;;5053358;28;20040;-82
2023/12/29 03:35:19;;;;;;;21.10;5.85;;;;;;;;;;5049142;28;20052;-82
2023/12/29 03:37:45;;;;;;;25.00;6.28;;;;;;;;;;5053418;28;20044;-82
2023/12/29 03:40:12;;;;;;;18.27;4.88;;;;;;;;;;5070560;28;20044;-82
2023/12/29 03:42:38;;;;;;;25.58;6.60;;;;;;;;;;5053066;28;20056;-83
2023/12/29 03:45:04;;;;;;;24.13;5.95;;;;;;;;;;5043170;28;20401;-82
2023/12/29 03:47:31;;;;;;;21.45;5.38;;;;;;;;;;5066877;28;20033;-82
2023/12/29 03:50:00;;;;;;;20.05;5.88;;;;;;;;;;5050812;28;20087;-82
2023/12/29 03:52:26;;;;;;;22.52;6.18;;;;;;;;;;5052959;28;20048;-82
2023/12/29 03:54:52;;;;;;;27.08;5.93;;;;;;;;;;5045335;28;20052;-82
2023/12/29 03:57:20;;;;;;;24.40;5.60;;;;;;;;;;5040643;28;20052;-82
2023/12/29 03:59:46;;;;;;;17.55;4.57;;;;;;;;;;5050846;28;20358;-82
2023/12/29 04:02:12;;;;;;;32.55;6.38;;;;;;;;;;5046867;28;20385;-81
2023/12/29 04:04:38;;;;;;;32.13;6.82;;;;;;;;;;5045350;28;20052;-82
2023/12/29 04:07:05;;;;;;;23.60;6.03;;;;;;;;;;5054058;28;20392;-82
2023/12/29 04:09:31;;;;;;;23.92;5.40;;;;;;;;;;5051425;28;20041;-82
2023/12/29 04:11:57;;;;;;;34.00;6.60;;;;;;;;;;5040402;28;20045;-81
2023/12/29 04:14:23;;;;;;;22.23;6.05;;;;;;;;;;5032850;28;20045;-81
2023/12/29 04:16:49;;;;;;;28.02;5.57;;;;;;;;;;5040603;28;20053;-82
2023/12/29 04:19:15;;;;;;;16.92;5.35;;;;;;;;;;5046273;28;20048;-82
2023/12/29 04:21:44;;;;;;;23.05;6.13;;;;;;;;;;5053026;28;20048;-83
2023/12/29 04:24:10;;;;;;;23.70;6.35;;;;;;;;;;5056353;28;20051;-82
2023/12/29 04:26:39;;;;;;;23.42;5.80;;;;;;;;;;5048744;28;20033;-81
2023/12/29 04:29:05;;;;;;;27.98;6.70;;;;;;;;;;5074500;28;20048;-82
2023/12/29 04:31:31;;;;;;;22.25;6.05;;;;;;;;;;5070505;28;20043;-82
2023/12/29 04:33:57;;;;;;;29.98;7.25;;;;;;;;;;5049558;28;20396;-81
2023/12/29 04:36:23;;;;;;;19.77;4.70;;;;;;;;;;5051762;28;20040;-82
2023/12/29 04:38:49;;;;;;;32.58;5.78;;;;;;;;;;5050296;28;20807;-82
2023/12/29 04:41:15;;;;;;;34.30;6.60;;;;;;;;;;5046467;28;20556;-82
2023/12/29 04:43:41;;;;;;;30.20;6.50;;;;;;;;;;5044382;28;20131;-82
2023/12/29 04:46:07;;;;;;;31.92;5.78;;;;;;;;;;5046978;28;20162;-82
2023/12/29 04:48:35;;;;;;;19.42;6.57;;;;;;;;;;5051346;28;20048;-83
2023/12/29 04:51:01;;;;;;;23.00;6.28;;;;;;;;;;5047157;28;20086;-82
2023/12/29 04:53:27;;;;;;;24.17;6.55;;;;;;;;;;5055829;28;20415;-82
2023/12/29 04:55:53;;;;;;;34.83;5.95;;;;;;;;;;5051651;28;20049;-82
2023/12/29 04:58:19;;;;;;;23.90;5.32;;;;;;;;;;5050044;28;20450;-82
2023/12/29 05:00:45;;;;;;;25.88;6.18;;;;;;;;;;5049114;28;20048;-82
2023/12/29 05:03:11;;;;;;;27.73;6.80;;;;;;;;;;5039218;28;20048;-82
2023/12/29 05:05:40;;;;;;;25.70;6.60;;;;;;;;;;5066461;28;20464;-82
2023/12/29 05:08:06;;;;;;;25.58;6.60;;;;;;;;;;5043207;28;20445;-82
2023/12/29 05:10:34;;;;;;;25.13;5.53;;;;;;;;;;5047180;28;20388;-82
2023/12/29 05:13:00;;;;;;;30.77;6.15;;;;;;;;;;5054897;28;20101;-83
2023/12/29 05:15:26;;;;;;;28.70;6.35;;;;;;;;;;5054324;28;20053;-82
2023/12/29 05:17:52;;;;;;;30.10;7.18;;;;;;;;;;5052483;28;20060;-83
2023/12/29 05:20:18;;;;;;;32.10;6.78;;;;;;;;;;5050618;28;20052;-81
2023/12/29 05:22:44;;;;;;;33.53;7.57;;;;;;;;;;5049383;28;20070;-83
2023/12/29 05:25:10;;;;;;;25.10;6.32;;;;;;;;;;5056073;28;20052;-82
2023/12/29 05:27:36;;;;;;;28.02;6.60;;;;;;;;;;5052633;28;20064;-82
2023/12/29 05:30:03;;;;;;;27.25;6.22;;;;;;;;;;5051667;28;20048;-82
2023/12/29 05:32:29;;;;;;;29.70;5.32;;;;;;;;;;5054917;28;20045;-82
2023/12/29 05:34:55;;;;;;;25.17;5.30;;;;;;;;;;5073234;28;20087;-82
2023/12/29 05:37:21;;;;;;;26.48;6.20;;;;;;;;;;5050040;28;20097;-83
2023/12/29 05:39:47;;;;;;;25.83;7.00;;;;;;;;;;5038868;28;20133;-82
2023/12/29 05:42:13;;;;;;;34.65;7.22;;;;;;;;;;5045840;28;20060;-82
2023/12/29 05:44:39;;;;;;;30.30;6.88;;;;;;;;;;5050934;28;20041;-82
2023/12/29 05:47:05;;;;;;;26.15;7.53;;;;;;;;;;5052096;28;20106;-83
2023/12/29 05:49:37;;;;;;;24.67;4.72;;;;;;;;;;5051683;28;20506;-82
2023/12/29 05:52:03;;;;;;;29.08;6.15;;;;;;;;;;5066022;28;20053;-83
2023/12/29 05:54:30;;;;;;;31.13;6.95;;;;;;;;;;5044542;28;20049;-82
2023/12/29 05:56:56;;;;;;;25.58;5.93;;;;;;;;;;5042756;28;20499;-83
2023/12/29 05:59:22;;;;;;;23.67;6.22;;;;;;;;;;5067147;28;20500;-82
2023/12/29 06:01:48;;;;;;;23.92;6.00;;;;;;;;;;5064082;28;20396;-82
2023/12/29 06:04:14;;;;;;;34.78;7.03;;;;;;;;;;5053630;28;20098;-82
2023/12/29 06:06:42;;;;;;;31.73;6.82;;;;;;;;;;5054247;28;20098;-82
2023/12/29 06:09:10;;;;;;;19.73;6.88;;;;;;;;;;5072510;28;20048;-82
2023/12/29 06:11:36;;;;;;;25.10;6.13;;;;;;;;;;5052712;28;20036;-82
2023/12/29 06:14:02;;;;;;;31.38;6.10;;;;;;;;;;5052321;28;21157;-81
2023/12/29 06:16:29;;;;;;;23.40;5.80;;;;;;;;;;5051055;28;20500;-82
2023/12/29 06:18:55;;;;;;;25.65;5.95;;;;;;;;;;5072659;28;20048;-82
2023/12/29 06:21:22;;;;;;;38.15;6.70;;;;;;;;;;5051989;28;20055;-82
2023/12/29 06:23:48;;;;;;;27.35;7.47;;;;;;;;;;5054933;28;20057;-82
2023/12/29 06:26:18;;;;;;;26.45;7.00;;;;;;;;;;5052131;28;20365;-83
2023/12/29 06:28:44;;;;;;;24.38;5.85;;;;;;;;;;5072679;28;20055;-82
2023/12/29 06:31:10;;;;;;;25.77;6.63;;;;;;;;;;5060149;28;20391;-82
2023/12/29 06:33:36;;;;;;;30.25;7.15;;;;;;;;;;5035410;28;20055;-82
2023/12/29 06:36:03;;;;;;;25.92;6.25;;;;;;;;;;5051620;28;20052;-82
2023/12/29 06:38:29;;;;;;;31.10;6.70;;;;;;;;;;5051831;28;20052;-82
2023/12/29 06:40:55;;;;;;;33.95;7.10;;;;;;;;;;5043328;28;20392;-82
2023/12/29 06:43:22;;;;;;;32.33;6.63;;;;;;;;;;5069936;28;20391;-81
2023/12/29 06:45:48;;;;;;;27.80;6.43;;;;;;;;;;5042606;28;20488;-82
2023/12/29 06:48:14;;;;;;;33.53;7.25;;;;;;;;;;5052163;28;20048;-82
2023/12/29 06:50:40;;;;;;;31.60;6.63;;;;;;;;;;5051926;28;20051;-81
2023/12/29 06:53:06;;;;;;;25.27;6.22;;;;;;;;;;5051186;28;20041;-82
2023/12/29 06:55:32;;;;;;;33.20;6.20;;;;;;;;;;5053846;28;20118;-82
2023/12/29 06:57:58;;;;;;;33.45;8.10;;;;;;;;;;5046741;28;20455;-81
2023/12/29 07:00:24;;;;;;;41.50;8.77;;;;;;;;;;5038487;28;20787;-83
2023/12/29 07:02:50;;;;;;;21.05;5.72;;;;;;;;;;5068437;28;20074;-85
2023/12/29 07:05:16;;;;;;;23.67;5.45;;;;;;;;;;5054541;28;20051;-85
2023/12/29 07:07:42;;;;;;;34.72;7.05;;;;;;;;;;5054908;28;20047;-83
2023/12/29 07:10:09;;;;;;;23.63;5.10;;;;;;;;;;5055690;28;20074;-84
2023/12/29 07:12:35;;;;;;;25.73;6.88;;;;;;;;;;5046560;28;20041;-84
2023/12/29 07:15:01;;;;;;;27.70;5.90;;;;;;;;;;5042202;28;20080;-84
2023/12/29 07:17:27;;;;;;;25.50;6.97;;;;;;;;;;5047674;28;20052;-84
2023/12/29 07:19:53;;;;;;;27.38;6.65;;;;;;;;;;5040953;28;20048;-85
2023/12/29 07:22:19;;;;;;;19.13;5.10;;;;;;;;;;5049750;28;20090;-85
2023/12/29 07:24:45;;;;;;;31.20;6.90;;;;;;;;;;5050542;28;20049;-83
2023/12/29 07:27:11;;;;;;;28.60;6.22;;;;;;;;;;5072420;28;20135;-85
2023/12/29 07:29:37;;;;;;;24.10;5.00;;;;;;;;;;5067432;28;20099;-85
2023/12/29 07:32:03;;;;;;;21.17;5.20;;;;;;;;;;5050056;28;20098;-85
2023/12/29 07:34:31;;;;;;;24.15;4.88;;;;;;;;;;5069837;28;20037;-85
2023/12/29 07:36:58;;;;;;;25.85;5.43;;;;;;;;;;5045972;28;20546;-84
2023/12/29 07:39:24;;;;;;;16.08;4.68;;;;;;;;;;5045066;28;20048;-84
2023/12/29 07:41:51;;;;;;;28.98;6.22;;;;;;;;;;5069799;28;20083;-84
2023/12/29 07:44:17;;;;;;;17.85;4.68;;;;;;;;;;5069563;28;20040;-84
2023/12/29 07:46:44;;;;;;;18.65;4.22;;;;;;;;;;5048525;28;20045;-83
2023/12/29 07:49:10;;;;;;;17.38;4.80;;;;;;;;;;5048185;28;20066;-83
2023/12/29 07:51:40;;;;;;;21.38;4.55;;;;;;;;;;5045445;28;20041;-83
2023/12/29 07:54:07;;;;;;;30.77;6.47;;;;;;;;;;5042829;28;20094;-83
2023/12/29 07:56:33;;;;;;;19.63;5.35;;;;;;;;;;5048861;28;20052;-82
2023/12/29 07:58:59;;;;;;;19.42;5.20;;;;;;;;;;5048064;28;20064;-82
2023/12/29 08:01:25;;;;;;;17.33;4.47;;;;;;;;;;5043031;28;20599;-83
2023/12/29 08:03:51;;;;;;;18.00;4.80;;;;;;;;;;5050046;28;20056;-83
2023/12/29 08:06:17;;;;;;;18.90;4.45;;;;;;;;;;5043539;28;20048;-83
2023/12/29 08:08:43;;;;;;;28.55;5.93;;;;;;;;;;5047692;28;20048;-82
2023/12/29 08:11:16;;;;;;;18.70;4.53;;;;;;;;;;5050056;28;20094;-83
2023/12/29 08:13:43;;;;;;;21.70;5.23;;;;;;;;;;5046457;28;20045;-83
2023/12/29 08:16:09;;;;;;;21.27;5.68;;;;;;;;;;5050104;28;20040;-83
2023/12/29 08:18:35;;;;;;;18.98;4.43;;;;;;;;;;5043198;28;20051;-83
2023/12/29 08:21:02;;;;;;;15.32;4.30;;;;;;;;;;5043179;28;20048;-84
2023/12/29 08:23:28;;;;;;;19.23;4.22;;;;;;;;;;5047359;28;20056;-83
2023/12/29 08:25:54;;;;;;;20.23;4.63;;;;;;;;;;5047482;28;20072;-83
2023/12/29 08:28:20;;;;;;;23.10;4.75;;;;;;;;;;5043012;28;20063;-84
2023/12/29 08:30:46;;;;;;;18.10;5.18;;;;;;;;;;5047295;28;20139;-84
2023/12/29 08:33:13;;;;;;;18.98;5.97;;;;;;;;;;5046404;28;20044;-84
2023/12/29 08:35:42;;;;;;;27.45;5.68;;;;;;;;;;5048599;28;20056;-84
2023/12/29 08:38:08;;;;;;;21.40;5.20;;;;;;;;;;5062147;28;20059;-85
2023/12/29 08:40:36;;;;;;;25.52;6.20;;;;;;;;;;5061846;28;20036;-85
2023/12/29 08:43:02;;;;;;;27.77;6.43;;;;;;;;;;5047301;28;20106;-84
2023/12/29 08:45:28;;;;;;;27.42;6.35;;;;;;;;;;5047062;28;20159;-84
2023/12/29 08:47:57;;;;;;;28.13;5.20;;;;;;;;;;5049379;28;20048;-82
2023/12/29 08:50:23;;;;;;;24.17;5.47;;;;;;;;;;5052260;28;20074;-82
2023/12/29 08:52:49;;;;;;;22.55;5.93;;;;;;;;;;5048747;28;20391;-84
2023/12/29 08:55:15;;;;;;;21.77;5.95;;;;;;;;;;5048548;28;20051;-84
2023/12/29 08:57:41;;;;;;;21.48;6.03;;;;;;;;;;5051610;28;20071;-84
2023/12/29 09:00:09;;;;;;;22.95;5.40;;;;;;;;;;5049212;28;20508;-86
2023/12/29 09:02:35;;;;;;;31.50;6.50;;;;;;;;;;5064074;28;20133;-82
2023/12/29 09:05:01;;;;;;;22.67;5.47;;;;;;;;;;5046366;28;20090;-82
2023/12/29 09:07:28;;;;;;;23.83;5.53;;;;;;;;;;5050314;28;20052;-82
2023/12/29 09:09:54;;;;;;;32.47;6.85;;;;;;;;;;5047700;28;20083;-82
2023/12/29 09:12:20;;;;;;;31.80;7.15;;;;;;;;;;5048166;28;20369;-82
2023/12/29 09:14:46;;;;;;;30.48;6.15;;;;;;;;;;5046151;28;20055;-81
2023/12/29 09:17:12;;;;;;;18.98;4.68;;;;;;;;;;5051006;28;20059;-82
2023/12/29 09:19:38;;;;;;;25.15;5.82;;;;;;;;;;5047559;28;20040;-82
2023/12/29 09:22:04;;;;;;;21.38;4.60;;;;;;;;;;5052079;28;20404;-82
2023/12/29 09:24:30;;;;;;;28.38;6.30;;;;;;;;;;5047050;28;20052;-82
2023/12/29 09:26:56;;;;;;;28.15;6.70;;;;;;;;;;5049167;28;20067;-82
2023/12/29 09:29:22;;;;;;;27.40;5.90;;;;;;;;;;5055920;28;20056;-83
2023/12/29 09:31:48;;;;;;;19.30;4.90;;;;;;;;;;5046594;28;20485;-81
2023/12/29 09:34:14;;;;;;;21.05;5.72;;;;;;;;;;5058017;28;20066;-81
2023/12/29 09:36:40;;;;;;;25.42;6.20;;;;;;;;;;5048272;28;20037;-82
2023/12/29 09:39:06;;;;;;;22.65;5.65;;;;;;;;;;5048087;28;20532;-81
2023/12/29 09:41:33;;;;;;;31.05;6.10;;;;;;;;;;5050584;28;20106;-82
2023/12/29 09:44:01;;;;;;;28.50;5.90;;;;;;;;;;5052515;28;20147;-83
2023/12/29 09:46:30;;;;;;;23.23;4.63;;;;;;;;;;5050974;28;20135;-84
2023/12/29 09:48:57;;;;;;;17.60;3.67;;;;;;;;;;5050891;28;20045;-83
2023/12/29 09:51:24;;;;;;;16.45;5.07;;;;;;;;;;5047177;28;20119;-84
2023/12/29 09:53:51;;;;;;;17.55;4.82;;;;;;;;;;5049939;28;20109;-83
2023/12/29 09:56:18;;;;;;;15.43;3.58;;;;;;;;;;5046978;28;20048;-83
2023/12/29 09:58:46;;;;;;;24.33;5.07;;;;;;;;;;5040687;28;20051;-82
2023/12/29 10:01:13;;;;;;;24.98;4.68;;;;;;;;;;5060717;28;20078;-83
2023/12/29 10:03:39;;;;;;;14.23;4.07;;;;;;;;;;5050384;28;20458;-82
2023/12/29 10:06:10;;;;;;;18.45;4.95;;;;;;;;;;5048393;28;20037;-83
2023/12/29 10:08:38;;;;;;;14.75;4.30;;;;;;;;;;5049615;28;20146;-84
2023/12/29 10:11:05;;;;;;;17.45;4.60;;;;;;;;;;5052276;28;20128;-84
2023/12/29 10:13:32;;;;;;;16.45;3.45;;;;;;;;;;5047099;28;20443;-83
2023/12/29 10:16:04;;;;;;;19.55;5.40;;;;;;;;;;5049537;28;20124;-84
2023/12/29 10:18:47;;;;;;;11.63;3.50;;;;;;;;;;5043928;28;20056;-85
2023/12/29 10:21:18;;;;;;;18.67;4.28;;;;;;;;;;5046474;28;20044;-85
2023/12/29 10:23:50;;;;;;;13.75;3.90;;;;;;;;;;5045574;28;20123;-85
2023/12/29 10:26:16;;;;;;;12.53;3.50;;;;;;;;;;5052475;28;20102;-86
2023/12/29 10:28:43;;;;;;;19.27;3.72;;;;;;;;;;5052379;28;20082;-86
2023/12/29 10:31:10;;;;;;;12.43;3.58;;;;;;;;;;5050576;28;20498;-86
2023/12/29 10:33:36;;;;;;;15.25;4.10;;;;;;;;;;5047978;28;20139;-86
2023/12/29 10:36:06;;;;;;;25.00;4.40;;;;;;;;;;5048984;28;20124;-86
2023/12/29 10:38:35;;;;;;;12.80;3.55;;;;;;;;;;5047033;28;20064;-86
2023/12/29 10:41:21;;;;;;;17.40;3.92;;;;;;;;;;5045166;28;20055;-86
2023/12/29 10:43:51;;;;;;;21.75;4.90;;;;;;;;;;5043913;28;20066;-86
2023/12/29 10:46:18;;;;;;;14.70;3.85;;;;;;;;;;5047737;28;20063;-87
2023/12/29 10:48:44;;;;;;;13.40;4.10;;;;;;;;;;5046988;28;20052;-87
2023/12/29 10:51:10;;;;;;;16.17;3.88;;;;;;;;;;5048081;28;20048;-86
2023/12/29 10:53:37;;;;;;;7.90;3.63;;;;;;;;;;5046611;28;20493;-86
2023/12/29 10:56:03;;;;;;;21.35;4.93;;;;;;;;;;5052215;28;20048;-85
2023/12/29 10:58:37;;;;;;;16.15;4.78;;;;;;;;;;5045045;28;20910;-86
2023/12/29 11:01:14;;;;;;;21.42;4.53;;;;;;;;;;5047675;28;20041;-86
2023/12/29 11:03:40;;;;;;;15.35;3.92;;;;;;;;;;5048109;28;20058;-87
2023/12/29 11:06:06;;;;;;;18.52;4.47;;;;;;;;;;5059214;28;20044;-86
2023/12/29 11:08:36;;;;;;;15.57;4.22;;;;;;;;;;5043331;28;20063;-81
2023/12/29 11:11:03;;;;;;;18.77;4.32;;;;;;;;;;5049672;28;20048;-86
2023/12/29 11:13:30;;;;;;;12.00;3.67;;;;;;;;;;5051229;28;20492;-86
2023/12/29 11:15:56;;;;;;;14.52;4.28;;;;;;;;;;5048871;28;20396;-86
2023/12/29 11:18:22;;;;;;;16.70;4.25;;;;;;;;;;5050783;28;20049;-86
2023/12/29 11:20:49;;;;;;;18.05;4.43;;;;;;;;;;5046952;28;20053;-85
2023/12/29 11:23:17;;;;;;;17.65;4.50;;;;;;;;;;5062893;28;20079;-86
2023/12/29 11:25:46;;;;;;;13.30;4.00;;;;;;;;;;5047296;28;20514;-85
2023/12/29 11:28:12;;;;;;;14.50;4.05;;;;;;;;;;5047893;28;20056;-85
2023/12/29 11:30:39;;;;;;;11.77;3.65;;;;;;;;;;5069440;28;20131;-86
2023/12/29 11:33:05;;;;;;;15.57;6.10;;;;;;;;;;5049623;28;20049;-85
2023/12/29 11:35:46;;;;;;;18.65;4.70;;;;;;;;;;5043297;28;20480;-86
2023/12/29 11:38:34;;;;;;;18.48;4.70;;;;;;;;;;5045121;28;20047;-85
2023/12/29 11:41:09;;;;;;;16.02;4.28;;;;;;;;;;5041058;28;20091;-85
2023/12/29 11:43:35;;;;;;;19.15;4.85;;;;;;;;;;5044462;28;20037;-86
2023/12/29 11:46:01;;;;;;;12.48;4.05;;;;;;;;;;5048443;28;20080;-86
2023/12/29 11:48:46;;;;;;;14.32;4.30;;;;;;;;;;5043999;28;20078;-85
2023/12/29 11:51:28;;;;;;;17.00;3.72;;;;;;;;;;5042440;28;20054;-85
2023/12/29 11:53:54;;;;;;;10.07;3.40;;;;;;;;;;5039954;28;20056;-86
2023/12/29 11:56:20;;;;;;;15.73;3.17;;;;;;;;;;5049612;28;20036;-85
2023/12/29 11:58:46;;;;;;;13.07;3.80;;;;;;;;;;5041529;28;20052;-84
2023/12/29 12:01:12;;;;;;;11.85;3.50;;;;;;;;;;5047323;28;20044;-85
2023/12/29 12:03:38;;;;;;;24.55;5.40;;;;;;;;;;5045182;28;20056;-85
2023/12/29 12:06:04;;;;;;;23.30;5.05;;;;;;;;;;5044764;28;20059;-85
2023/12/29 12:08:35;;;;;;;20.98;4.05;;;;;;;;;;5047180;28;20056;-84
2023/12/29 12:11:28;;;;;;;15.10;3.88;;;;;;;;;;5043956;28;20059;-87
2023/12/29 12:13:54;;;;;;;16.85;4.57;;;;;;;;;;5037654;28;20060;-86
2023/12/29 12:16:38;;;;;;;13.43;4.28;;;;;;;;;;5050486;28;20036;-86
2023/12/29 12:19:05;;;;;;;19.35;4.28;;;;;;;;;;5056381;28;20048;-86
2023/12/29 12:21:31;;;;;;;19.50;4.75;;;;;;;;;;5043274;28;20128;-86
2023/12/29 12:23:58;;;;;;;10.32;3.20;;;;;;;;;;5059408;28;20135;-86
2023/12/29 12:26:26;;;;;;;28.35;5.47;;;;;;;;;;5048008;28;20060;-84
2023/12/29 12:28:55;;;;;;;12.75;3.38;;;;;;;;;;5043604;28;20056;-85
2023/12/29 12:31:21;;;;;;;14.75;4.38;;;;;;;;;;5060841;28;20376;-86
2023/12/29 12:33:57;;;;;;;24.15;4.82;;;;;;;;;;5055291;28;20053;-84
2023/12/29 12:36:24;;;;;;;17.27;4.53;;;;;;;;;;5047137;28;20345;-86
2023/12/29 12:38:54;;;;;;;20.45;4.82;;;;;;;;;;5059818;28;20052;-87
2023/12/29 12:41:21;;;;;;;21.60;5.03;;;;;;;;;;5056164;28;20171;-87
2023/12/29 12:43:53;;;;;;;24.40;5.13;;;;;;;;;;5045978;28;20053;-87
2023/12/29 12:46:23;;;;;;;22.53;5.50;;;;;;;;;;5047823;28;20044;-86
2023/12/29 12:48:50;;;;;;;20.02;4.72;;;;;;;;;;5059239;28;20509;-87
2023/12/29 12:51:16;;;;;;;18.52;4.43;;;;;;;;;;5047640;28;20507;-87
2023/12/29 12:53:44;;;;;;;20.95;5.07;;;;;;;;;;5048069;28;20055;-86
2023/12/29 12:56:11;;;;;;;23.23;4.55;;;;;;;;;;5049412;28;20141;-86
2023/12/29 12:58:37;;;;;;;23.52;5.20;;;;;;;;;;5046258;28;20048;-85
2023/12/29 13:01:03;;;;;;;15.88;4.55;;;;;;;;;;5045002;28;20128;-85
2023/12/29 13:03:30;;;;;;;14.38;3.72;;;;;;;;;;5050220;28;20055;-83
2023/12/29 13:05:58;;;;;;;16.92;4.72;;;;;;;;;;5056751;28;20040;-87
2023/12/29 13:08:25;;;;;;;29.38;6.18;;;;;;;;;;5069676;28;20049;-87
2023/12/29 13:10:51;;;;;;;24.25;6.82;;;;;;;;;;5051682;28;20060;-86
2023/12/29 13:13:18;;;;;;;18.50;4.47;;;;;;;;;;5051611;28;20075;-87
2023/12/29 13:15:48;;;;;;;11.95;4.57;;;;;;;;;;5047677;28;20479;-87
2023/12/29 13:18:15;;;;;;;14.40;3.88;;;;;;;;;;5068403;28;20044;-86
2023/12/29 13:20:47;;;;;;;23.02;4.75;;;;;;;;;;5049005;28;20044;-86
2023/12/29 13:23:14;;;;;;;16.02;4.85;;;;;;;;;;5052972;28;20058;-86
2023/12/29 13:25:40;;;;;;;20.58;5.75;;;;;;;;;;5051948;28;20700;-86
2023/12/29 13:28:08;;;;;;;17.83;3.90;;;;;;;;;;5045837;28;20057;-86
2023/12/29 13:30:34;;;;;;;16.85;5.45;;;;;;;;;;5069140;28;20511;-87
2023/12/29 13:33:06;;;;;;;16.92;3.78;;;;;;;;;;5050450;28;20125;-87
2023/12/29 13:35:36;;;;;;;14.18;4.13;;;;;;;;;;5052387;28;20048;-86
2023/12/29 13:38:12;;;;;;;24.52;4.65;;;;;;;;;;5052021;28;20044;-86
2023/12/29 15:59:28;;;;;;;17.25;4.20;;;;;;;;;;5040647;27;1939565;-87
2023/12/29 16:01:55;;;;;;;11.80;4.18;;;;;;;;;;5083184;28;20043;-85
2023/12/29 16:04:21;;;;;;;10.63;3.35;;;;;;;;;;5084903;28;20068;-86
2023/12/29 16:06:47;;;;;;;13.35;3.60;;;;;;;;;;5083122;28;20077;-85
2023/12/29 16:09:13;;;;;;;10.18;3.47;;;;;;;;;;5082064;28;20081;-85
2023/12/29 16:11:39;;;;;;;14.00;3.70;;;;;;;;;;5086211;28;20035;-85
2023/12/29 16:14:05;;;;;;;13.90;3.17;;;;;;;;;;5084593;28;20039;-85
2023/12/29 16:16:34;;;;;;;8.63;2.78;;;;;;;;;;5086813;28;20044;-86
2023/12/29 16:19:01;;;;;;;15.13;4.70;;;;;;;;;;5085341;28;20460;-86
2023/12/29 16:21:29;;;;;;;8.07;2.85;;;;;;;;;;5084911;28;20051;-85
2023/12/29 16:23:55;;;;;;;11.00;2.75;;;;;;;;;;5086959;28;20059;-85
2023/12/29 16:26:21;;;;;;;5.88;2.20;;;;;;;;;;5081181;28;20050;-85
2023/12/29 16:28:47;;;;;;;5.97;3.00;;;;;;;;;;5081363;28;20044;-85
2023/12/29 16:31:13;;;;;;;6.82;2.42;;;;;;;;;;5083972;28;20472;-84
2023/12/29 16:33:39;;;;;;;9.35;2.90;;;;;;;;;;5085871;28;20055;-85
2023/12/29 16:36:09;;;;;;;6.20;2.70;;;;;;;;;;5088499;28;20047;-85
2023/12/29 16:38:35;;;;;;;13.13;3.08;;;;;;;;;;5081826;28;20051;-85
2023/12/29 16:41:01;;;;;;;10.30;2.70;;;;;;;;;;5080713;28;20434;-84
2023/12/29 16:43:27;;;;;;;13.82;3.25;;;;;;;;;;5085212;28;20181;-85
2023/12/29 16:45:53;;;;;;;14.52;3.80;;;;;;;;;;5084794;28;20512;-83
2023/12/29 16:48:19;;;;;;;9.05;2.88;;;;;;;;;;5082607;28;20134;-86
2023/12/29 16:50:45;;;;;;;10.18;3.95;;;;;;;;;;5107350;28;20044;-83